Latest Weather Observations for Kanagulk

IDV60801

Issued at 11:32 pm EST Monday 21 August 2017 (issued every 30 minutes, with the page automatically refreshed every 10 minutes)

About weather observations | Map of weather stations | Latest weather observations for VIC | Other Formats
Station Details ID: 079097 Name: KANAGULK Lat: -37.12 Lon: 141.80 Height: 188.8 m
Data from the previous 72 hours. | See also: Recent months at Kanagulk
Date/Time
EST
Temp
°C
App
Temp
°C
Dew
Point
°C
Rel
Hum
%
Delta-T
°C
Wind Press
QNH
hPa
Press
MSL
hPa
Rain since
9am
mm
Dir  Spd
km/h
Gust
km/h
Spd
kts
Gust
kts
21/11:30pm 4.9 3.7 4.8 99 0.0 CALM 0 0 0 0 1016.7 1017.0 0.0
21/11:00pm 4.6 3.4 4.5 99 0.0 CALM 0 0 0 0 1016.7 1017.0 0.0
21/10:30pm 4.4 3.1 4.3 99 0.0 CALM 0 0 0 0 1016.6 1016.9 0.0
21/10:00pm 5.1 4.0 5.0 99 0.0 CALM 0 0 0 0 1016.5 1016.8 0.0
21/09:30pm 4.8 3.2 4.7 99 0.0 ESE 2 7 1 4 1016.2 1016.5 0.0
21/09:00pm 5.7 4.7 5.6 99 0.0 CALM 0 0 0 0 1015.9 1016.1 0.0
21/08:30pm 6.3 5.4 6.2 99 0.0 CALM 0 0 0 0 1015.4 1015.6 0.0
21/08:00pm 6.7 5.9 6.6 99 0.0 CALM 0 0 0 0 1015.0 1015.2 0.0
21/07:30pm 7.2 6.5 6.8 97 0.2 CALM 0 0 0 0 1014.7 1014.9 0.0
21/07:00pm 8.0 7.0 5.8 86 1.0 CALM 0 0 0 0 1014.3 1014.5 0.0
21/06:30pm 8.6 7.6 5.7 82 1.3 CALM 0 0 0 0 1014.0 1014.2 0.0
21/06:00pm 9.2 6.9 5.8 79 1.6 NNE 7 9 4 5 1013.5 1013.7 0.0
21/05:30pm 11.4 9.0 6.9 74 2.2 NNE 9 11 5 6 1012.8 1013.1 0.0
21/05:00pm 11.2 9.1 6.7 74 2.2 NNE 7 13 4 7 1012.7 1013.0 0.0
21/04:30pm 12.0 8.3 6.1 67 2.8 NNE 15 19 8 10 1012.2 1012.5 0.0
21/04:00pm 11.6 7.4 5.9 68 2.7 NNE 17 22 9 12 1011.8 1012.1 0.0
21/03:30pm 11.8 7.6 5.9 67 2.8 NNE 17 24 9 13 1011.6 1011.8 0.0
21/03:00pm 11.9 7.9 6.6 70 2.5 N 17 24 9 13 1011.7 1012.0 0.0
21/02:30pm 11.8 6.6 5.4 65 3.0 NNE 22 33 12 18 1011.1 1011.3 0.0
21/02:00pm 11.5 6.4 5.8 68 2.7 NNE 22 33 12 18 1011.5 1011.7 0.0
21/01:30pm 11.2 5.7 6.1 71 2.4 NNE 24 32 13 17 1011.5 1011.7 0.0
21/01:00pm 11.5 5.7 6.2 70 2.5 NNE 26 32 14 17 1011.7 1012.0 0.0
21/12:30pm 10.5 3.4 5.7 72 2.2 NNE 32 41 17 22 1011.8 1012.1 0.0
21/12:00pm 10.4 4.3 6.5 77 1.8 NE 28 37 15 20 1012.1 1012.4 0.0
21/11:30am 9.9 3.8 6.6 80 1.6 NE 28 35 15 19 1012.3 1012.6 0.0
21/11:00am 9.6 3.7 7.4 86 1.1 NE 28 39 15 21 1012.8 1013.1 0.0
21/10:30am 7.8 2.5 6.9 94 0.4 NNE 24 32 13 17 1012.9 1013.2 0.0
21/10:00am 6.9 2.4 6.8 99 0.0 NNE 20 28 11 15 1013.2 1013.4 0.0
21/09:30am 6.2 1.5 6.1 99 0.0 NE 20 26 11 14 1013.4 1013.6 0.0
21/09:00am 6.1 0.2 6.0 99 0.0 NE 26 33 14 18 1013.3 1013.5 6.8
21/08:30am 5.6 0.4 5.5 99 0.0 NE 22 30 12 16 1013.2 1013.4 6.6
21/08:00am 5.3 0.6 5.2 99 0.0 NE 19 24 10 13 1013.0 1013.3 6.6
21/07:30am 5.1 0.4 5.0 99 0.0 NE 19 24 10 13 1012.8 1013.1 6.6
21/07:00am 5.2 -0.1 5.1 99 0.0 NE 22 28 12 15 1012.6 1012.9 6.6
21/06:30am 5.2 0.3 5.1 99 0.0 NE 20 28 11 15 1012.7 1013.0 6.4
21/06:00am 5.2 0.3 5.1 99 0.0 NE 20 26 11 14 1012.6 1012.9 6.2
21/05:30am 5.2 0.9 5.1 99 0.0 NE 17 20 9 11 1012.7 1013.0 6.0
21/05:00am 5.1 0.2 5.0 99 0.0 NE 20 28 11 15 1012.7 1013.0 6.0
21/04:30am 5.1 0.4 5.0 99 0.0 NE 19 26 10 14 1013.3 1013.5 5.6
21/04:00am 5.2 0.9 5.1 99 0.0 NNE 17 24 9 13 1013.7 1013.9 5.2
21/03:30am 5.2 0.3 5.1 99 0.0 NNE 20 30 11 16 1014.1 1014.3 4.6
21/03:00am 5.2 0.3 5.1 99 0.0 NNE 20 30 11 16 1014.5 1014.7 3.8
21/02:30am 5.4 1.1 5.3 99 0.0 N 17 24 9 13 1015.0 1015.2 2.8
21/02:00am 5.5 1.2 5.4 99 0.0 NNE 17 22 9 12 1015.3 1015.5 1.8
21/01:30am 5.7 1.1 5.6 99 0.0 NNE 19 24 10 13 1015.5 1015.7 1.6
21/01:00am 6.0 1.1 5.3 95 0.3 NNE 20 26 11 14 1015.9 1016.1 0.6
21/12:30am 6.3 1.5 4.8 90 0.7 NNE 19 24 10 13 1016.0 1016.2 0.2
21/12:00am 6.9 2.0 4.2 83 1.2 NNE 19 28 10 15 1016.3 1016.6 0.0
 
Date/Time
EST
Temp
°C
App
Temp
°C
Dew
Point
°C
Rel
Hum
%
Delta-T
°C
Wind Press
QNH
hPa
Press
MSL
hPa
Rain since
9am
mm
Dir  Spd
km/h
Gust
km/h
Spd
kts
Gust
kts
20/11:30pm 7.2 2.3 4.0 80 1.4 NE 19 26 10 14 1016.4 1016.7 0.0
20/11:00pm 7.0 2.5 4.1 82 1.3 NE 17 22 9 12 1016.6 1016.9 0.0
20/10:30pm 7.0 2.5 4.1 82 1.3 NE 17 22 9 12 1017.0 1017.3 0.0
20/10:00pm 7.0 2.5 4.1 82 1.3 NE 17 20 9 11 1017.2 1017.5 0.0
20/09:30pm 6.7 2.5 4.0 83 1.2 NE 15 19 8 10 1017.4 1017.7 0.0
20/09:00pm 6.7 2.6 4.2 84 1.1 NE 15 19 8 10 1017.3 1017.6 0.0
20/08:30pm 6.5 2.4 4.2 85 1.0 ENE 15 20 8 11 1017.2 1017.5 0.0
20/08:00pm 6.4 2.3 4.4 87 0.9 ENE 15 17 8 9 1017.6 1017.9 0.0
20/07:30pm 5.7 2.4 4.7 93 0.4 E 11 15 6 8 1017.9 1018.2 0.0
20/07:00pm 6.1 3.2 4.7 91 0.6 E 9 9 5 5 1018.4 1018.7 0.0
20/06:30pm 6.7 4.2 4.5 86 1.0 ENE 7 11 4 6 1018.4 1018.7 0.0
20/06:00pm 7.3 4.0 4.6 83 1.2 ENE 11 15 6 8 1018.5 1018.8 0.0
20/05:30pm 7.9 5.1 5.0 82 1.3 NE 9 13 5 7 1018.8 1019.0 0.0
20/05:00pm 8.7 4.5 3.9 72 2.1 NE 15 20 8 11 1019.0 1019.2 0.0
20/04:30pm 8.8 3.8 3.8 71 2.2 NE 19 28 10 15 1019.1 1019.3 0.0
20/04:00pm 8.6 3.7 4.0 73 2.0 NE 19 24 10 13 1019.2 1019.4 0.0
20/03:30pm 8.6 3.6 3.8 72 2.1 NNE 19 26 10 14 1020.0 1020.2 0.0
20/03:00pm 8.8 3.9 4.0 72 2.1 NNE 19 24 10 13 1020.5 1020.7 0.0
20/02:30pm 8.8 4.0 4.6 75 1.9 NNE 19 26 10 14 1020.7 1021.0 0.0
20/02:00pm 8.8 4.0 4.6 75 1.9 NE 19 26 10 14 1020.7 1021.0 0.0
20/01:30pm 9.5 4.7 4.5 71 2.2 NNE 19 24 10 13 1021.4 1021.7 0.0
20/01:00pm 8.6 4.0 3.8 72 2.1 NNE 17 22 9 12 1022.4 1022.7 0.0
20/12:30pm 8.5 4.0 4.1 74 1.9 NNE 17 22 9 12 1023.0 1023.3 0.0
20/12:00pm 8.0 3.3 3.1 71 2.1 NNE 17 20 9 11 1024.3 1024.5 0.0
20/11:30am 8.5 3.6 3.9 73 2.0 NE 19 24 10 13 1024.7 1024.9 0.0
20/11:00am 7.2 2.5 2.9 74 1.8 NNE 17 24 9 13 1025.4 1025.7 0.0
20/10:30am 7.0 3.3 4.3 83 1.2 NE 13 17 7 9 1025.5 1025.8 0.0
20/10:00am 6.9 2.9 4.9 87 0.9 NNE 15 19 8 10 1026.2 1026.5 0.0
20/09:30am 4.8 2.5 4.7 99 0.0 ENE 6 9 3 5 1026.5 1026.8 0.0
20/09:00am 2.5 0.9 2.4 99 0.0 CALM 0 6 0 3 1026.6 1026.9 0.2
20/08:30am 1.0 -1.2 1.0 100 0.0 E 2 6 1 3 1026.9 1027.2 0.2
20/08:00am -0.6 -3.1 -0.7 99 0.0 ESE 2 7 1 4 1026.8 1027.1 0.2
20/07:30am -1.0 -3.1 -1.1 99 0.0 CALM 0 0 0 0 1027.1 1027.4 0.2
20/07:00am -1.4 -3.6 -1.5 99 0.0 CALM 0 0 0 0 1026.9 1027.2 0.2
20/06:30am -1.4 -3.6 -1.5 99 0.0 CALM 0 0 0 0 1026.7 1027.0 0.2
20/06:00am -0.9 -3.0 -1.0 99 0.0 CALM 0 0 0 0 1026.8 1027.1 0.2
20/05:30am -0.8 -2.9 -0.9 99 0.0 CALM 0 0 0 0 1026.8 1027.1 0.2
20/05:00am -0.5 -2.6 -0.6 99 0.0 CALM 0 0 0 0 1026.9 1027.2 0.2
20/04:30am -0.9 -3.0 -1.0 99 0.0 CALM 0 0 0 0 1026.6 1026.9 0.2
20/04:00am -0.1 -2.1 -0.2 99 0.0 CALM 0 0 0 0 1026.8 1027.1 0.2
20/03:30am 0.2 -1.8 0.1 99 0.0 CALM 0 0 0 0 1027.0 1027.3 0.2
20/03:00am 0.6 -1.3 0.5 99 0.0 CALM 0 0 0 0 1027.0 1027.3 0.2
20/02:30am 0.7 -1.2 0.6 99 0.0 CALM 0 0 0 0 1027.0 1027.3 0.2
20/02:00am 0.9 -1.0 0.8 99 0.0 CALM 0 0 0 0 1027.2 1027.5 0.2
20/01:30am 1.6 -0.2 1.5 99 0.0 CALM 0 0 0 0 1027.3 1027.6 0.2
20/01:00am 1.6 -0.2 1.5 99 0.0 CALM 0 0 0 0 1027.4 1027.7 0.2
20/12:30am 1.9 0.2 1.8 99 0.0 CALM 0 0 0 0 1027.4 1027.7 0.2
20/12:00am 2.0 -0.1 1.9 99 0.0 SE 2 6 1 3 1027.5 1027.8 0.2
 
Date/Time
EST
Temp
°C
App
Temp
°C
Dew
Point
°C
Rel
Hum
%
Delta-T
°C
Wind Press
QNH
hPa
Press
MSL
hPa
Rain since
9am
mm
Dir  Spd
km/h
Gust
km/h
Spd
kts
Gust
kts
19/11:30pm 2.4 0.8 2.3 99 0.0 CALM 0 0 0 0 1027.8 1028.1 0.2
19/11:00pm 2.9 1.4 2.8 99 0.0 CALM 0 0 0 0 1028.1 1028.4 0.2
19/10:30pm 2.9 1.3 2.3 96 0.2 CALM 0 0 0 0 1028.3 1028.6 0.2
19/10:00pm 3.7 1.0 2.4 91 0.5 SE 6 9 3 5 1028.3 1028.6 0.2
19/09:30pm 4.4 1.7 3.5 94 0.4 SE 7 9 4 5 1028.3 1028.6 0.2
19/09:00pm 4.1 2.8 4.0 99 0.0 CALM 0 0 0 0 1028.5 1028.8 0.2
19/08:30pm 4.6 3.2 3.7 94 0.4 CALM 0 0 0 0 1028.2 1028.5 0.2
19/08:00pm 5.5 3.1 4.2 91 0.6 SW 6 7 3 4 1028.2 1028.5 0.2
19/07:30pm 5.6 4.3 4.2 91 0.6 CALM 0 7 0 4 1027.9 1028.2 0.2
19/07:00pm 6.1 4.8 3.9 86 0.9 CALM 0 6 0 3 1027.8 1028.1 0.2
19/06:30pm 6.6 5.2 3.6 81 1.3 CALM 0 6 0 3 1027.5 1027.8 0.2
19/06:00pm 8.4 5.9 3.7 72 2.0 SSW 6 9 3 5 1027.3 1027.6 0.2
19/05:30pm 8.9 5.0 3.5 69 2.4 S 13 17 7 9 1027.1 1027.4 0.2
19/05:00pm 9.8 5.3 2.4 60 3.2 S 15 24 8 13 1027.2 1027.5 0.2
19/04:30pm 9.6 4.7 4.0 68 2.5 SSW 19 28 10 15 1027.4 1027.7 0.2
19/04:00pm 10.9 7.3 4.8 66 2.8 SW 13 20 7 11 1027.5 1027.8 0.2
19/03:30pm 12.0 7.8 5.9 66 2.9 SSW 17 26 9 14 1027.6 1027.9 0.2
19/03:00pm 12.0 7.5 1.9 50 4.3 SSW 15 26 8 14 1027.4 1027.7 0.2
19/02:30pm 11.3 6.8 2.1 53 4.0 S 15 20 8 11 1027.4 1027.7 0.2
19/02:00pm 11.0 5.6 1.5 52 4.0 S 19 26 10 14 1027.5 1027.8 0.2
19/01:30pm 11.2 7.3 3.3 58 3.5 SSW 13 22 7 12 1027.6 1027.9 0.0
19/01:00pm 10.4 6.1 3.0 60 3.2 SSW 15 22 8 12 1027.9 1028.2 0.0
19/12:30pm 10.8 6.8 2.6 57 3.6 SSW 13 24 7 13 1028.1 1028.4 0.0
19/12:00pm 10.3 6.0 3.1 61 3.1 SSW 15 28 8 15 1028.2 1028.5 0.0
19/11:30am 9.5 4.4 2.8 63 2.9 S 19 26 10 14 1028.5 1028.8 0.0
19/11:00am 9.5 5.2 5.1 74 2.0 S 17 20 9 11 1028.5 1028.8 0.0
19/10:30am 8.8 4.7 4.6 75 1.9 S 15 24 8 13 1028.6 1028.9 0.0
19/10:00am 8.1 5.5 6.2 88 0.9 SSW 9 13 5 7 1028.5 1028.8 0.0
19/09:30am 6.5 4.3 6.4 99 0.0 WSW 7 11 4 6 1028.4 1028.7 0.0
19/09:00am 5.6 3.3 5.5 99 0.0 WSW 7 11 4 6 1027.8 1028.1 5.4
19/08:30am 4.9 2.6 4.9 100 0.0 WSW 6 9 3 5 1027.4 1027.7 5.4
19/08:00am 3.6 2.2 3.6 100 0.0 CALM 0 0 0 0 1027.0 1027.3 5.4
19/07:30am 2.6 1.0 2.5 99 0.0 CALM 0 7 0 4 1026.5 1026.8 5.4
19/07:00am 3.4 0.3 3.4 100 0.0 SW 9 13 5 7 1026.2 1026.5 5.4
19/06:30am 3.2 -0.4 3.2 100 0.0 SW 11 15 6 8 1025.7 1026.0 5.4
19/06:00am 3.0 0.2 3.0 100 0.0 SW 7 11 4 6 1025.4 1025.7 5.4
19/05:30am 2.2 -0.6 2.2 100 0.0 WSW 6 7 3 4 1025.0 1025.2 5.4
19/05:00am 2.3 -0.5 2.2 99 0.0 WSW 6 7 3 4 1024.6 1024.8 5.4
19/04:30am 3.2 0.4 3.2 100 0.0 SW 7 11 4 6 1024.5 1024.7 5.4
19/04:00am 2.6 -0.1 2.5 99 0.0 SW 6 9 3 5 1024.3 1024.5 5.4
19/03:30am 2.7 0.0 2.6 99 0.0 WSW 6 7 3 4 1024.0 1024.3 5.4
19/03:00am 2.8 0.1 2.7 99 0.0 WSW 6 9 3 5 1024.0 1024.3 5.4
19/02:30am 2.8 -0.1 2.7 99 0.0 WSW 7 11 4 6 1024.0 1024.3 5.4
19/02:00am 2.8 1.2 2.7 99 0.0 CALM 0 6 0 3 1023.9 1024.2 5.4
19/01:30am 3.1 0.5 3.0 99 0.0 WSW 6 9 3 5 1024.0 1024.3 5.4
19/01:00am 3.1 0.8 3.0 99 0.0 W 4 9 2 5 1023.7 1024.0 5.4
19/12:30am 3.1 0.8 3.0 99 0.0 WSW 4 7 2 4 1023.8 1024.1 5.2
19/12:00am 3.2 0.6 3.1 99 0.0 W 6 11 3 6 1023.4 1023.7 5.2

Other Formats:

Comma delimited format used in spreadsheet applications
http://www.bom.gov.au/fwo/IDV60801/IDV60801.95827.axf

JavaScript Object Notation format (JSON) in row-major order
http://www.bom.gov.au/fwo/IDV60801/IDV60801.95827.json